sensor_id;sensor_type;location;lat;lon;timestamp;pressure;altitude;pressure_sealevel;temperature;humidity
17711;BME280;8975;57.718;12.134;2023-01-10T00:01:15;115940.22;;;-142.68;54.54
17711;BME280;8975;57.718;12.134;2023-01-10T00:03:41;115940.22;;;-142.68;55.36
17711;BME280;8975;57.718;12.134;2023-01-10T00:06:06;115940.22;;;-142.68;55.29
17711;BME280;8975;57.718;12.134;2023-01-10T00:08:32;115940.22;;;-142.68;55.58
17711;BME280;8975;57.718;12.134;2023-01-10T00:10:57;115940.22;;;-142.68;56.09
17711;BME280;8975;57.718;12.134;2023-01-10T00:13:22;115940.22;;;-142.68;55.99
17711;BME280;8975;57.718;12.134;2023-01-10T00:15:52;115940.22;;;-142.68;55.04
17711;BME280;8975;57.718;12.134;2023-01-10T00:18:18;115940.22;;;-142.68;55.49
17711;BME280;8975;57.718;12.134;2023-01-10T00:20:53;115940.22;;;-142.68;55.66
17711;BME280;8975;57.718;12.134;2023-01-10T00:23:18;115940.22;;;-142.68;55.65
17711;BME280;8975;57.718;12.134;2023-01-10T00:25:45;115940.22;;;-142.68;55.26
17711;BME280;8975;57.718;12.134;2023-01-10T00:28:10;115940.22;;;-142.68;55.50
17711;BME280;8975;57.718;12.134;2023-01-10T00:30:50;115940.22;;;-142.68;54.97
17711;BME280;8975;57.718;12.134;2023-01-10T00:33:19;115940.22;;;-142.68;55.51
17711;BME280;8975;57.718;12.134;2023-01-10T00:35:45;115940.22;;;-142.68;55.58
17711;BME280;8975;57.718;12.134;2023-01-10T00:38:10;115940.22;;;-142.68;55.83
17711;BME280;8975;57.718;12.134;2023-01-10T00:40:36;115940.22;;;-142.68;56.22
17711;BME280;8975;57.718;12.134;2023-01-10T00:43:01;115940.22;;;-142.68;55.56
17711;BME280;8975;57.718;12.134;2023-01-10T00:45:46;115940.22;;;-142.68;55.23
17711;BME280;8975;57.718;12.134;2023-01-10T00:48:15;115940.22;;;-142.68;55.47
17711;BME280;8975;57.718;12.134;2023-01-10T00:50:41;115940.22;;;-142.68;55.46
17711;BME280;8975;57.718;12.134;2023-01-10T00:53:07;115940.22;;;-142.68;55.02
17711;BME280;8975;57.718;12.134;2023-01-10T00:55:34;115940.22;;;-142.68;55.33
17711;BME280;8975;57.718;12.134;2023-01-10T00:57:59;115940.22;;;-142.68;55.51
17711;BME280;8975;57.718;12.134;2023-01-10T01:00:25;115940.22;;;-142.68;54.97
17711;BME280;8975;57.718;12.134;2023-01-10T01:02:50;115940.22;;;-142.68;54.62
17711;BME280;8975;57.718;12.134;2023-01-10T01:05:17;115940.22;;;-142.68;54.96
17711;BME280;8975;57.718;12.134;2023-01-10T01:07:42;115940.22;;;-142.68;55.07
17711;BME280;8975;57.718;12.134;2023-01-10T01:10:08;115940.22;;;-142.68;54.58
17711;BME280;8975;57.718;12.134;2023-01-10T01:12:53;115940.22;;;-142.68;54.11
17711;BME280;8975;57.718;12.134;2023-01-10T01:15:19;115940.22;;;-142.68;54.43
17711;BME280;8975;57.718;12.134;2023-01-10T01:17:46;115940.22;;;-142.68;54.81
17711;BME280;8975;57.718;12.134;2023-01-10T01:20:12;115940.22;;;-142.68;54.80
17711;BME280;8975;57.718;12.134;2023-01-10T01:22:37;115940.22;;;-142.68;54.08
17711;BME280;8975;57.718;12.134;2023-01-10T01:25:03;115940.22;;;-142.68;53.25
17711;BME280;8975;57.718;12.134;2023-01-10T01:27:29;115940.22;;;-142.68;54.19
17711;BME280;8975;57.718;12.134;2023-01-10T01:29:55;115940.22;;;-142.68;54.43
17711;BME280;8975;57.718;12.134;2023-01-10T01:32:21;115940.22;;;-142.68;54.68
17711;BME280;8975;57.718;12.134;2023-01-10T01:34:47;115940.22;;;-142.68;54.88
17711;BME280;8975;57.718;12.134;2023-01-10T01:37:12;115940.22;;;-142.68;54.60
17711;BME280;8975;57.718;12.134;2023-01-10T01:39:38;115940.22;;;-142.68;54.55
17711;BME280;8975;57.718;12.134;2023-01-10T01:42:04;115940.22;;;-142.68;54.04
17711;BME280;8975;57.718;12.134;2023-01-10T01:44:32;115940.22;;;-142.68;54.65
17711;BME280;8975;57.718;12.134;2023-01-10T01:47:07;115940.22;;;-142.68;54.54
17711;BME280;8975;57.718;12.134;2023-01-10T01:49:39;115940.22;;;-142.68;54.55
17711;BME280;8975;57.718;12.134;2023-01-10T01:52:12;115940.22;;;-142.68;54.54
17711;BME280;8975;57.718;12.134;2023-01-10T01:54:42;115940.22;;;-142.68;54.08
17711;BME280;8975;57.718;12.134;2023-01-10T01:57:15;115940.22;;;-142.68;54.44
17711;BME280;8975;57.718;12.134;2023-01-10T01:59:44;115940.22;;;-142.68;54.07
17711;BME280;8975;57.718;12.134;2023-01-10T02:02:43;115940.22;;;-142.68;53.61
17711;BME280;8975;57.718;12.134;2023-01-10T02:05:13;115940.22;;;-142.68;53.56
17711;BME280;8975;57.718;12.134;2023-01-10T02:07:41;115940.22;;;-142.68;53.78
17711;BME280;8975;57.718;12.134;2023-01-10T02:12:40;115940.22;;;-142.68;52.95
17711;BME280;8975;57.718;12.134;2023-01-10T02:15:08;115940.22;;;-142.68;52.30
17711;BME280;8975;57.718;12.134;2023-01-10T02:17:34;115940.22;;;-142.68;53.26
17711;BME280;8975;57.718;12.134;2023-01-10T02:20:02;115940.22;;;-142.68;53.23
17711;BME280;8975;57.718;12.134;2023-01-10T02:39:25;115940.22;;;-142.68;52.01
17711;BME280;8975;57.718;12.134;2023-01-10T02:42:08;115940.22;;;-142.68;53.56
17711;BME280;8975;57.718;12.134;2023-01-10T02:44:45;115940.22;;;-142.68;53.25
17711;BME280;8975;57.718;12.134;2023-01-10T02:47:14;115940.22;;;-142.68;53.42
17711;BME280;8975;57.718;12.134;2023-01-10T02:49:47;115940.22;;;-142.68;53.47
17711;BME280;8975;57.718;12.134;2023-01-10T02:52:18;115940.22;;;-142.68;53.83
17711;BME280;8975;57.718;12.134;2023-01-10T02:54:45;115940.22;;;-142.68;54.36
17711;BME280;8975;57.718;12.134;2023-01-10T03:00:05;115940.22;;;-142.68;54.38
17711;BME280;8975;57.718;12.134;2023-01-10T03:02:43;115940.22;;;-142.68;53.85
17711;BME280;8975;57.718;12.134;2023-01-10T03:10:57;115940.22;;;-142.68;53.74
17711;BME280;8975;57.718;12.134;2023-01-10T03:13:33;115940.22;;;-142.68;52.92
17711;BME280;8975;57.718;12.134;2023-01-10T03:16:04;115940.22;;;-142.68;52.46
17711;BME280;8975;57.718;12.134;2023-01-10T03:18:35;115940.22;;;-142.68;53.71
17711;BME280;8975;57.718;12.134;2023-01-10T03:21:03;115940.22;;;-142.68;53.72
17711;BME280;8975;57.718;12.134;2023-01-10T03:23:32;115940.22;;;-142.68;53.78
17711;BME280;8975;57.718;12.134;2023-01-10T03:25:59;115940.22;;;-142.68;54.05
17711;BME280;8975;57.718;12.134;2023-01-10T03:28:50;115940.22;;;-142.68;53.86
17711;BME280;8975;57.718;12.134;2023-01-10T03:31:24;115940.22;;;-142.68;53.94
17711;BME280;8975;57.718;12.134;2023-01-10T03:33:52;115940.22;;;-142.68;54.26
17711;BME280;8975;57.718;12.134;2023-01-10T03:36:25;115940.22;;;-142.68;53.61
17711;BME280;8975;57.718;12.134;2023-01-10T03:38:59;115940.22;;;-142.68;53.68
17711;BME280;8975;57.718;12.134;2023-01-10T03:41:50;115940.22;;;-142.68;53.67
17711;BME280;8975;57.718;12.134;2023-01-10T03:44:35;115940.22;;;-142.68;54.34
17711;BME280;8975;57.718;12.134;2023-01-10T03:47:20;115940.22;;;-142.68;54.41
17711;BME280;8975;57.718;12.134;2023-01-10T03:49:52;115940.22;;;-142.68;54.79
17711;BME280;8975;57.718;12.134;2023-01-10T03:52:19;115940.22;;;-142.68;54.76
17711;BME280;8975;57.718;12.134;2023-01-10T03:54:45;115940.22;;;-142.68;54.71
17711;BME280;8975;57.718;12.134;2023-01-10T03:57:21;115940.22;;;-142.68;54.43
17711;BME280;8975;57.718;12.134;2023-01-10T03:59:50;115940.22;;;-142.68;53.99
17711;BME280;8975;57.718;12.134;2023-01-10T04:02:16;115940.22;;;-142.68;55.31
17711;BME280;8975;57.718;12.134;2023-01-10T04:04:41;115940.22;;;-142.68;55.28
17711;BME280;8975;57.718;12.134;2023-01-10T04:07:07;115940.22;;;-142.68;54.20
17711;BME280;8975;57.718;12.134;2023-01-10T04:09:32;115940.22;;;-142.68;54.29
17711;BME280;8975;57.718;12.134;2023-01-10T04:11:58;115940.22;;;-142.68;54.42
17711;BME280;8975;57.718;12.134;2023-01-10T04:14:23;115940.22;;;-142.68;54.12
17711;BME280;8975;57.718;12.134;2023-01-10T04:16:48;115940.22;;;-142.68;54.47
17711;BME280;8975;57.718;12.134;2023-01-10T04:19:14;115940.22;;;-142.68;54.31
17711;BME280;8975;57.718;12.134;2023-01-10T04:21:39;115940.22;;;-142.68;54.63
17711;BME280;8975;57.718;12.134;2023-01-10T04:24:05;115940.22;;;-142.68;53.91
17711;BME280;8975;57.718;12.134;2023-01-10T04:26:30;115940.22;;;-142.68;53.52
17711;BME280;8975;57.718;12.134;2023-01-10T04:28:56;115940.22;;;-142.68;53.61
17711;BME280;8975;57.718;12.134;2023-01-10T04:31:22;115940.22;;;-142.68;54.65
17711;BME280;8975;57.718;12.134;2023-01-10T04:33:47;115940.22;;;-142.68;54.55
17711;BME280;8975;57.718;12.134;2023-01-10T04:36:13;115940.22;;;-142.68;54.72
17711;BME280;8975;57.718;12.134;2023-01-10T04:38:38;115940.22;;;-142.68;54.53
17711;BME280;8975;57.718;12.134;2023-01-10T04:41:04;115940.22;;;-142.68;54.51
17711;BME280;8975;57.718;12.134;2023-01-10T04:43:29;115940.22;;;-142.68;54.49
17711;BME280;8975;57.718;12.134;2023-01-10T04:45:55;115940.22;;;-142.68;54.33
17711;BME280;8975;57.718;12.134;2023-01-10T04:48:20;115940.22;;;-142.68;54.28
17711;BME280;8975;57.718;12.134;2023-01-10T04:50:49;115940.22;;;-142.68;54.29
17711;BME280;8975;57.718;12.134;2023-01-10T04:53:15;115940.22;;;-142.68;53.67
17711;BME280;8975;57.718;12.134;2023-01-10T04:55:40;115940.22;;;-142.68;53.65
17711;BME280;8975;57.718;12.134;2023-01-10T04:58:06;115940.22;;;-142.68;53.68
17711;BME280;8975;57.718;12.134;2023-01-10T05:00:31;115940.22;;;-142.68;54.49
17711;BME280;8975;57.718;12.134;2023-01-10T05:02:57;115940.22;;;-142.68;54.34
17711;BME280;8975;57.718;12.134;2023-01-10T05:05:23;115940.22;;;-142.68;53.86
17711;BME280;8975;57.718;12.134;2023-01-10T05:07:48;115940.22;;;-142.68;53.99
17711;BME280;8975;57.718;12.134;2023-01-10T05:10:14;115940.22;;;-142.68;53.61
17711;BME280;8975;57.718;12.134;2023-01-10T05:12:39;115940.22;;;-142.68;54.23
17711;BME280;8975;57.718;12.134;2023-01-10T05:15:05;115940.22;;;-142.68;53.52
17711;BME280;8975;57.718;12.134;2023-01-10T05:17:30;115940.22;;;-142.68;54.07
17711;BME280;8975;57.718;12.134;2023-01-10T05:19:56;115940.22;;;-142.68;53.65
17711;BME280;8975;57.718;12.134;2023-01-10T05:22:21;115940.22;;;-142.68;54.04
17711;BME280;8975;57.718;12.134;2023-01-10T05:24:47;115940.22;;;-142.68;54.00
17711;BME280;8975;57.718;12.134;2023-01-10T05:27:12;115940.22;;;-142.68;54.08
17711;BME280;8975;57.718;12.134;2023-01-10T05:29:38;115940.22;;;-142.68;53.50
17711;BME280;8975;57.718;12.134;2023-01-10T05:32:03;115940.22;;;-142.68;53.22
17711;BME280;8975;57.718;12.134;2023-01-10T05:34:28;115940.22;;;-142.68;52.82
17711;BME280;8975;57.718;12.134;2023-01-10T05:36:54;115940.22;;;-142.68;54.02
17711;BME280;8975;57.718;12.134;2023-01-10T05:39:20;115940.22;;;-142.68;54.13
17711;BME280;8975;57.718;12.134;2023-01-10T05:41:45;115940.22;;;-142.68;53.87
17711;BME280;8975;57.718;12.134;2023-01-10T05:44:11;115940.22;;;-142.68;53.40
17711;BME280;8975;57.718;12.134;2023-01-10T05:46:37;115940.22;;;-142.68;52.98
17711;BME280;8975;57.718;12.134;2023-01-10T05:49:02;115940.22;;;-142.68;52.40
17711;BME280;8975;57.718;12.134;2023-01-10T05:51:27;115940.22;;;-142.68;52.97
17711;BME280;8975;57.718;12.134;2023-01-10T05:53:53;115940.22;;;-142.68;52.37
17711;BME280;8975;57.718;12.134;2023-01-10T05:56:18;115940.22;;;-142.68;52.87
17711;BME280;8975;57.718;12.134;2023-01-10T05:58:44;115940.22;;;-142.68;53.36
17711;BME280;8975;57.718;12.134;2023-01-10T06:01:09;115940.22;;;-142.68;53.80
17711;BME280;8975;57.718;12.134;2023-01-10T06:03:35;115940.22;;;-142.68;53.39
17711;BME280;8975;57.718;12.134;2023-01-10T06:06:00;115940.22;;;-142.68;53.29
17711;BME280;8975;57.718;12.134;2023-01-10T06:08:28;115940.22;;;-142.68;53.68
17711;BME280;8975;57.718;12.134;2023-01-10T06:10:53;115940.22;;;-142.68;53.60
17711;BME280;8975;57.718;12.134;2023-01-10T06:13:20;115940.22;;;-142.68;53.48
17711;BME280;8975;57.718;12.134;2023-01-10T06:15:45;115940.22;;;-142.68;53.14
17711;BME280;8975;57.718;12.134;2023-01-10T06:18:14;115940.22;;;-142.68;53.12
17711;BME280;8975;57.718;12.134;2023-01-10T06:20:49;115940.22;;;-142.68;53.44
17711;BME280;8975;57.718;12.134;2023-01-10T06:23:15;115940.22;;;-142.68;52.70
17711;BME280;8975;57.718;12.134;2023-01-10T06:25:41;115940.22;;;-142.68;53.03
17711;BME280;8975;57.718;12.134;2023-01-10T06:28:10;115940.22;;;-142.68;53.40
17711;BME280;8975;57.718;12.134;2023-01-10T06:30:37;115940.22;;;-142.68;53.14
17711;BME280;8975;57.718;12.134;2023-01-10T06:33:04;115940.22;;;-142.68;52.41
17711;BME280;8975;57.718;12.134;2023-01-10T06:35:31;115940.22;;;-142.68;52.72
17711;BME280;8975;57.718;12.134;2023-01-10T06:37:57;115940.22;;;-142.68;52.59
17711;BME280;8975;57.718;12.134;2023-01-10T06:40:23;115940.22;;;-142.68;51.90
17711;BME280;8975;57.718;12.134;2023-01-10T06:42:49;115940.22;;;-142.68;52.12
17711;BME280;8975;57.718;12.134;2023-01-10T06:45:14;115940.22;;;-142.68;52.66
17711;BME280;8975;57.718;12.134;2023-01-10T06:47:40;115940.22;;;-142.68;52.71
17711;BME280;8975;57.718;12.134;2023-01-10T06:50:06;115940.22;;;-142.68;51.80
17711;BME280;8975;57.718;12.134;2023-01-10T06:52:31;115940.22;;;-142.68;52.37
17711;BME280;8975;57.718;12.134;2023-01-10T06:54:57;115940.22;;;-142.68;52.24
17711;BME280;8975;57.718;12.134;2023-01-10T06:57:22;115940.22;;;-142.68;52.92
17711;BME280;8975;57.718;12.134;2023-01-10T06:59:47;115940.22;;;-142.68;52.50
17711;BME280;8975;57.718;12.134;2023-01-10T07:02:13;115940.22;;;-142.68;52.94
17711;BME280;8975;57.718;12.134;2023-01-10T07:04:39;115940.22;;;-142.68;52.59
17711;BME280;8975;57.718;12.134;2023-01-10T07:07:04;115940.22;;;-142.68;52.43
17711;BME280;8975;57.718;12.134;2023-01-10T07:09:30;115940.22;;;-142.68;52.22
17711;BME280;8975;57.718;12.134;2023-01-10T07:12:00;115940.22;;;-142.68;52.88
17711;BME280;8975;57.718;12.134;2023-01-10T07:14:25;115940.22;;;-142.68;52.97
17711;BME280;8975;57.718;12.134;2023-01-10T07:16:51;115940.22;;;-142.68;52.80
17711;BME280;8975;57.718;12.134;2023-01-10T07:19:16;115940.22;;;-142.68;52.80
17711;BME280;8975;57.718;12.134;2023-01-10T07:21:42;115940.22;;;-142.68;53.44
17711;BME280;8975;57.718;12.134;2023-01-10T07:24:08;115940.22;;;-142.68;53.84
17711;BME280;8975;57.718;12.134;2023-01-10T07:26:33;115940.22;;;-142.68;53.18
17711;BME280;8975;57.718;12.134;2023-01-10T07:28:59;115940.22;;;-142.68;53.42
17711;BME280;8975;57.718;12.134;2023-01-10T07:31:24;115940.22;;;-142.68;53.89
17711;BME280;8975;57.718;12.134;2023-01-10T07:33:51;115940.22;;;-142.68;53.53
17711;BME280;8975;57.718;12.134;2023-01-10T07:36:17;115940.22;;;-142.68;53.04
17711;BME280;8975;57.718;12.134;2023-01-10T07:38:42;115940.22;;;-142.68;52.86
17711;BME280;8975;57.718;12.134;2023-01-10T07:41:08;115940.22;;;-142.68;53.39
17711;BME280;8975;57.718;12.134;2023-01-10T07:43:33;115940.22;;;-142.68;53.89
17711;BME280;8975;57.718;12.134;2023-01-10T07:46:00;115940.22;;;-142.68;53.19
17711;BME280;8975;57.718;12.134;2023-01-10T07:48:26;115940.22;;;-142.68;53.14
17711;BME280;8975;57.718;12.134;2023-01-10T07:50:56;115940.22;;;-142.68;54.13
17711;BME280;8975;57.718;12.134;2023-01-10T07:53:23;115940.22;;;-142.68;53.37
17711;BME280;8975;57.718;12.134;2023-01-10T07:55:48;115940.22;;;-142.68;53.77
17711;BME280;8975;57.718;12.134;2023-01-10T07:58:14;115940.22;;;-142.68;53.69
17711;BME280;8975;57.718;12.134;2023-01-10T08:00:41;115940.22;;;-142.68;53.29
17711;BME280;8975;57.718;12.134;2023-01-10T08:03:09;115940.22;;;-142.68;53.39
17711;BME280;8975;57.718;12.134;2023-01-10T08:05:34;115940.22;;;-142.68;53.73
17711;BME280;8975;57.718;12.134;2023-01-10T08:08:07;115940.22;;;-142.68;53.74
17711;BME280;8975;57.718;12.134;2023-01-10T08:10:34;115940.22;;;-142.68;53.55
17711;BME280;8975;57.718;12.134;2023-01-10T08:12:59;115940.22;;;-142.68;53.57
17711;BME280;8975;57.718;12.134;2023-01-10T08:15:25;115940.22;;;-142.68;53.49
17711;BME280;8975;57.718;12.134;2023-01-10T08:17:51;115940.22;;;-142.68;53.18
17711;BME280;8975;57.718;12.134;2023-01-10T08:20:16;115940.22;;;-142.68;52.80
17711;BME280;8975;57.718;12.134;2023-01-10T08:22:42;115940.22;;;-142.68;52.89
17711;BME280;8975;57.718;12.134;2023-01-10T08:25:08;115940.22;;;-142.68;53.50
17711;BME280;8975;57.718;12.134;2023-01-10T08:27:33;115940.22;;;-142.68;52.62
17711;BME280;8975;57.718;12.134;2023-01-10T08:29:59;115940.22;;;-142.68;52.97
17711;BME280;8975;57.718;12.134;2023-01-10T08:32:24;115940.22;;;-142.68;53.45
17711;BME280;8975;57.718;12.134;2023-01-10T08:34:50;115940.22;;;-142.68;52.35
17711;BME280;8975;57.718;12.134;2023-01-10T08:37:15;115940.22;;;-142.68;52.95
17711;BME280;8975;57.718;12.134;2023-01-10T08:39:41;115940.22;;;-142.68;53.09
17711;BME280;8975;57.718;12.134;2023-01-10T08:42:06;115940.22;;;-142.68;52.45
17711;BME280;8975;57.718;12.134;2023-01-10T08:44:32;115940.22;;;-142.68;52.44
17711;BME280;8975;57.718;12.134;2023-01-10T08:46:57;115940.22;;;-142.68;52.93
17711;BME280;8975;57.718;12.134;2023-01-10T08:49:22;115940.22;;;-142.68;52.82
17711;BME280;8975;57.718;12.134;2023-01-10T08:51:48;115940.22;;;-142.68;53.05
17711;BME280;8975;57.718;12.134;2023-01-10T08:54:13;115940.22;;;-142.68;52.85
17711;BME280;8975;57.718;12.134;2023-01-10T08:56:39;115940.22;;;-142.68;53.57
17711;BME280;8975;57.718;12.134;2023-01-10T08:59:05;115940.22;;;-142.68;53.25
17711;BME280;8975;57.718;12.134;2023-01-10T09:01:31;115940.22;;;-142.68;52.87
17711;BME280;8975;57.718;12.134;2023-01-10T09:03:56;115940.22;;;-142.68;52.92
17711;BME280;8975;57.718;12.134;2023-01-10T09:06:22;115940.22;;;-142.68;52.74
17711;BME280;8975;57.718;12.134;2023-01-10T09:08:48;115940.22;;;-142.68;52.75
17711;BME280;8975;57.718;12.134;2023-01-10T09:11:14;115940.22;;;-142.68;52.87
17711;BME280;8975;57.718;12.134;2023-01-10T09:13:40;115940.22;;;-142.68;53.15
17711;BME280;8975;57.718;12.134;2023-01-10T09:16:06;115940.22;;;-142.68;53.32
17711;BME280;8975;57.718;12.134;2023-01-10T09:18:32;115940.22;;;-142.68;53.31
17711;BME280;8975;57.718;12.134;2023-01-10T09:20:59;115940.22;;;-142.68;53.51
17711;BME280;8975;57.718;12.134;2023-01-10T09:23:24;115940.22;;;-142.68;53.31
17711;BME280;8975;57.718;12.134;2023-01-10T09:25:52;115940.22;;;-142.68;52.94
17711;BME280;8975;57.718;12.134;2023-01-10T09:28:19;115940.22;;;-142.68;52.81
17711;BME280;8975;57.718;12.134;2023-01-10T09:30:45;115940.22;;;-142.68;53.19
17711;BME280;8975;57.718;12.134;2023-01-10T09:33:12;115940.22;;;-142.68;52.72
17711;BME280;8975;57.718;12.134;2023-01-10T09:35:39;115940.22;;;-142.68;53.15
17711;BME280;8975;57.718;12.134;2023-01-10T09:38:09;115940.22;;;-142.68;52.65
17711;BME280;8975;57.718;12.134;2023-01-10T09:48:50;115940.22;;;-142.68;53.78
17711;BME280;8975;57.718;12.134;2023-01-10T09:51:39;115940.22;;;-142.68;53.90
17711;BME280;8975;57.718;12.134;2023-01-10T09:54:10;115940.22;;;-142.68;53.97
17711;BME280;8975;57.718;12.134;2023-01-10T09:56:37;115940.22;;;-142.68;53.42
17711;BME280;8975;57.718;12.134;2023-01-10T09:59:04;115940.22;;;-142.68;53.08
17711;BME280;8975;57.718;12.134;2023-01-10T10:01:32;115940.22;;;-142.68;53.97
17711;BME280;8975;57.718;12.134;2023-01-10T10:04:24;115940.22;;;-142.68;53.53
17711;BME280;8975;57.718;12.134;2023-01-10T10:06:52;115940.22;;;-142.68;53.35
17711;BME280;8975;57.718;12.134;2023-01-10T10:09:22;115940.22;;;-142.68;53.30
17711;BME280;8975;57.718;12.134;2023-01-10T10:17:22;115940.22;;;-142.68;52.73
17711;BME280;8975;57.718;12.134;2023-01-10T10:23:26;115940.22;;;-142.68;53.27
17711;BME280;8975;57.718;12.134;2023-01-10T10:26:22;115940.22;;;-142.68;53.71
17711;BME280;8975;57.718;12.134;2023-01-10T10:34:43;115940.22;;;-142.68;53.91
17711;BME280;8975;57.718;12.134;2023-01-10T10:39:57;115940.22;;;-142.68;54.83
17711;BME280;8975;57.718;12.134;2023-01-10T10:42:29;115940.22;;;-142.68;53.35
17711;BME280;8975;57.718;12.134;2023-01-10T10:45:00;115940.22;;;-142.68;53.89
17711;BME280;8975;57.718;12.134;2023-01-10T10:47:31;115940.22;;;-142.68;55.03
17711;BME280;8975;57.718;12.134;2023-01-10T10:52:45;115940.22;;;-142.68;53.81
17711;BME280;8975;57.718;12.134;2023-01-10T10:55:27;115940.22;;;-142.68;54.55
17711;BME280;8975;57.718;12.134;2023-01-10T10:57:53;115940.22;;;-142.68;53.92
17711;BME280;8975;57.718;12.134;2023-01-10T11:00:20;115940.22;;;-142.68;53.19
17711;BME280;8975;57.718;12.134;2023-01-10T11:02:52;115940.22;;;-142.68;53.07
17711;BME280;8975;57.718;12.134;2023-01-10T11:05:39;115940.22;;;-142.68;53.08
17711;BME280;8975;57.718;12.134;2023-01-10T11:08:08;115940.22;;;-142.68;53.18
17711;BME280;8975;57.718;12.134;2023-01-10T11:10:36;115940.22;;;-142.68;52.87
17711;BME280;8975;57.718;12.134;2023-01-10T11:15:48;115940.22;;;-142.68;53.06
17711;BME280;8975;57.718;12.134;2023-01-10T11:18:17;115940.22;;;-142.68;53.27
17711;BME280;8975;57.718;12.134;2023-01-10T11:20:51;115940.22;;;-142.68;53.88
17711;BME280;8975;57.718;12.134;2023-01-10T11:26:03;115940.22;;;-142.68;53.30
17711;BME280;8975;57.718;12.134;2023-01-10T11:28:30;115940.22;;;-142.68;53.33
17711;BME280;8975;57.718;12.134;2023-01-10T11:30:57;115940.22;;;-142.68;53.03
17711;BME280;8975;57.718;12.134;2023-01-10T11:33:31;115940.22;;;-142.68;55.22
17711;BME280;8975;57.718;12.134;2023-01-10T11:36:05;115940.22;;;-142.68;54.42
17711;BME280;8975;57.718;12.134;2023-01-10T11:38:32;115940.22;;;-142.68;54.13
17711;BME280;8975;57.718;12.134;2023-01-10T11:41:03;115940.22;;;-142.68;53.26
17711;BME280;8975;57.718;12.134;2023-01-10T11:43:32;115940.22;;;-142.68;53.63
17711;BME280;8975;57.718;12.134;2023-01-10T11:46:02;115940.22;;;-142.68;53.80
17711;BME280;8975;57.718;12.134;2023-01-10T11:48:44;115940.22;;;-142.68;53.35
17711;BME280;8975;57.718;12.134;2023-01-10T11:51:26;115940.22;;;-142.68;52.68
17711;BME280;8975;57.718;12.134;2023-01-10T11:54:01;115940.22;;;-142.68;53.18
17711;BME280;8975;57.718;12.134;2023-01-10T11:56:33;115940.22;;;-142.68;53.56
17711;BME280;8975;57.718;12.134;2023-01-10T11:59:07;115940.22;;;-142.68;53.60
17711;BME280;8975;57.718;12.134;2023-01-10T12:04:18;115940.22;;;-142.68;53.09
17711;BME280;8975;57.718;12.134;2023-01-10T12:06:50;115940.22;;;-142.68;53.36
17711;BME280;8975;57.718;12.134;2023-01-10T12:09:44;115940.22;;;-142.68;53.19
17711;BME280;8975;57.718;12.134;2023-01-10T12:14:55;115940.22;;;-142.68;54.17
17711;BME280;8975;57.718;12.134;2023-01-10T12:17:28;115940.22;;;-142.68;53.46
17711;BME280;8975;57.718;12.134;2023-01-10T12:19:58;115940.22;;;-142.68;52.93
17711;BME280;8975;57.718;12.134;2023-01-10T12:22:34;115940.22;;;-142.68;53.51
17711;BME280;8975;57.718;12.134;2023-01-10T12:25:02;115940.22;;;-142.68;53.42
17711;BME280;8975;57.718;12.134;2023-01-10T12:27:31;115940.22;;;-142.68;53.78
17711;BME280;8975;57.718;12.134;2023-01-10T12:30:00;115940.22;;;-142.68;54.00
17711;BME280;8975;57.718;12.134;2023-01-10T12:32:31;115940.22;;;-142.68;53.42
17711;BME280;8975;57.718;12.134;2023-01-10T12:35:05;115940.22;;;-142.68;53.57
17711;BME280;8975;57.718;12.134;2023-01-10T12:37:47;115940.22;;;-142.68;53.15
17711;BME280;8975;57.718;12.134;2023-01-10T12:42:58;115940.22;;;-142.68;52.51
17711;BME280;8975;57.718;12.134;2023-01-10T12:46:04;115940.22;;;-142.68;52.51
17711;BME280;8975;57.718;12.134;2023-01-10T12:48:45;115940.22;;;-142.68;52.38
17711;BME280;8975;57.718;12.134;2023-01-10T12:51:17;115940.22;;;-142.68;52.03
17711;BME280;8975;57.718;12.134;2023-01-10T12:56:17;115940.22;;;-142.68;52.33
17711;BME280;8975;57.718;12.134;2023-01-10T12:58:47;115940.22;;;-142.68;52.82
17711;BME280;8975;57.718;12.134;2023-01-10T13:01:18;115940.22;;;-142.68;52.81
17711;BME280;8975;57.718;12.134;2023-01-10T13:03:53;115940.22;;;-142.68;52.51
17711;BME280;8975;57.718;12.134;2023-01-10T13:06:26;115940.22;;;-142.68;53.05
17711;BME280;8975;57.718;12.134;2023-01-10T13:08:53;115940.22;;;-142.68;52.85
17711;BME280;8975;57.718;12.134;2023-01-10T13:11:22;115940.22;;;-142.68;53.05
17711;BME280;8975;57.718;12.134;2023-01-10T13:13:55;115940.22;;;-142.68;53.10
17711;BME280;8975;57.718;12.134;2023-01-10T13:16:35;115940.22;;;-142.68;52.88
17711;BME280;8975;57.718;12.134;2023-01-10T13:21:37;115940.22;;;-142.68;52.95
17711;BME280;8975;57.718;12.134;2023-01-10T13:24:19;115940.22;;;-142.68;53.31
17711;BME280;8975;57.718;12.134;2023-01-10T13:29:39;115940.22;;;-142.68;53.30
17711;BME280;8975;57.718;12.134;2023-01-10T13:32:22;115940.22;;;-142.68;53.01
17711;BME280;8975;57.718;12.134;2023-01-10T13:34:48;115940.22;;;-142.68;52.48
17711;BME280;8975;57.718;12.134;2023-01-10T13:37:28;115940.22;;;-142.68;52.48
17711;BME280;8975;57.718;12.134;2023-01-10T13:39:57;115940.22;;;-142.68;52.51
17711;BME280;8975;57.718;12.134;2023-01-10T13:42:36;115940.22;;;-142.68;52.67
17711;BME280;8975;57.718;12.134;2023-01-10T13:45:28;115940.22;;;-142.68;52.29
17711;BME280;8975;57.718;12.134;2023-01-10T14:14:24;115940.22;;;-142.68;53.13
17711;BME280;8975;57.718;12.134;2023-01-10T14:17:09;115940.22;;;-142.68;53.03
17711;BME280;8975;57.718;12.134;2023-01-10T14:19:35;115940.22;;;-142.68;53.09
17711;BME280;8975;57.718;12.134;2023-01-10T14:22:02;115940.22;;;-142.68;52.72
17711;BME280;8975;57.718;12.134;2023-01-10T14:24:49;115940.22;;;-142.68;53.10